Terminal Aerodrome Forecast
Issued by NWS

Home | Current Version | Previous Version | Text Only | Print | Product List | Glossary On
Versions: 1 2 3 4 5 6 7 8 9 10 11 12 13 14 15 16 17 18 19 20
000
FTUS43 KDVN 271700
TAFCID
TAF
KCID 271731Z 2718/2818 08005KT P6SM BKN100
     FM280700 10003KT 6SM BR BKN040
     FM280900 12005KT 5SM TSRA BR BKN025CB
     FM281400 13008KT 6SM BR VCTS BKN035CB=

USA.gov is the U.S. government's official web portal to all federal, state and local government web resources and services.